Time;durP1;ratioP1;P1;durP2;ratioP2;P2;SDS_P1;SDS_P2;PMS_P1;PMS_P2;Temp;Humidity;BMP_temperature;BMP_pressure;BME280_temperature;BME280_humidity;BME280_pressure;Samples;Min_cycle;Max_cycle;Signal;HPM_P1;HPM_P2
2021/09/28 00:00:35;;;;;;;12.71;5.18;;;;;;;;;;360822;147;856095;-60
2021/09/28 00:01:38;;;;;;;9.74;5.58;;;;;;;;;;357677;148;856076;-59
2021/09/28 00:02:40;;;;;;;6.42;5.46;;;;;;;;;;356514;148;856705;-59
2021/09/28 00:03:41;;;;;;;7.41;5.51;;;;;;;;;;359887;147;864036;-59
2021/09/28 00:04:43;;;;;;;10.64;6.17;;;;;;;;;;360003;147;856197;-59
2021/09/28 00:05:45;;;;;;;9.28;5.74;;;;;;;;;;359635;147;856103;-59
2021/09/28 00:06:48;;;;;;;11.48;5.96;;;;;;;;;;359998;147;861255;-60
2021/09/28 00:07:50;;;;;;;11.48;6.17;;;;;;;;;;359492;147;856737;-60
2021/09/28 00:08:51;;;;;;;11.97;5.69;;;;;;;;;;358395;147;857288;-59
2021/09/28 00:09:53;;;;;;;11.51;5.78;;;;;;;;;;358977;147;863836;-59
2021/09/28 00:10:55;;;;;;;9.88;5.51;;;;;;;;;;359381;147;856747;-59
2021/09/28 00:11:56;;;;;;;9.01;5.70;;;;;;;;;;359756;147;856826;-59
2021/09/28 00:12:58;;;;;;;11.69;5.59;;;;;;;;;;359434;147;856534;-59
2021/09/28 00:14:00;;;;;;;9.19;5.13;;;;;;;;;;359147;148;863824;-59
2021/09/28 00:15:03;;;;;;;8.82;5.38;;;;;;;;;;358931;147;863797;-59
2021/09/28 00:16:05;;;;;;;8.00;5.50;;;;;;;;;;358652;147;858081;-59
2021/09/28 00:17:06;;;;;;;7.98;5.14;;;;;;;;;;359374;147;856682;-59
2021/09/28 00:18:08;;;;;;;7.84;5.56;;;;;;;;;;359920;147;856117;-60
2021/09/28 00:19:10;;;;;;;7.48;5.44;;;;;;;;;;359117;147;863889;-59
2021/09/28 00:20:12;;;;;;;8.49;5.60;;;;;;;;;;359691;147;856532;-60
2021/09/28 00:21:13;;;;;;;10.82;5.37;;;;;;;;;;359437;147;863607;-59
2021/09/28 00:22:15;;;;;;;9.26;5.21;;;;;;;;;;359465;147;856600;-60
2021/09/28 00:23:17;;;;;;;8.53;4.94;;;;;;;;;;359623;147;856673;-58
2021/09/28 00:24:19;;;;;;;7.05;5.24;;;;;;;;;;357632;148;856961;-60
2021/09/28 00:25:21;;;;;;;11.50;5.11;;;;;;;;;;358867;148;856330;-60
2021/09/28 00:26:24;;;;;;;10.18;5.64;;;;;;;;;;359779;147;858294;-60
2021/09/28 00:27:26;;;;;;;8.04;4.37;;;;;;;;;;360352;148;864047;-60
2021/09/28 00:28:28;;;;;;;6.00;5.02;;;;;;;;;;358655;147;856255;-60
2021/09/28 00:29:29;;;;;;;7.19;4.58;;;;;;;;;;359836;147;863753;-60
2021/09/28 00:30:32;;;;;;;7.08;5.03;;;;;;;;;;358989;147;856016;-60
2021/09/28 00:31:34;;;;;;;7.06;4.26;;;;;;;;;;360271;147;856349;-60
2021/09/28 00:32:35;;;;;;;7.82;4.97;;;;;;;;;;359682;148;856381;-60
2021/09/28 00:33:37;;;;;;;8.66;5.15;;;;;;;;;;356711;148;856677;-60
2021/09/28 00:34:40;;;;;;;10.95;4.34;;;;;;;;;;361052;147;863667;-60
2021/09/28 00:35:41;;;;;;;6.61;4.43;;;;;;;;;;360958;147;856443;-60
2021/09/28 00:36:43;;;;;;;12.46;5.01;;;;;;;;;;359627;147;856441;-60
2021/09/28 00:37:45;;;;;;;8.10;4.54;;;;;;;;;;358465;148;863912;-60
2021/09/28 00:38:46;;;;;;;9.26;4.39;;;;;;;;;;359259;147;863641;-60
2021/09/28 00:39:48;;;;;;;5.92;4.24;;;;;;;;;;355936;149;856400;-60
2021/09/28 00:40:50;;;;;;;8.32;5.06;;;;;;;;;;358654;148;863637;-60
2021/09/28 00:41:51;;;;;;;7.18;4.44;;;;;;;;;;358206;148;863625;-59
2021/09/28 00:42:53;;;;;;;7.93;4.44;;;;;;;;;;359001;150;856028;-59
2021/09/28 00:43:54;;;;;;;7.62;4.67;;;;;;;;;;359311;148;856167;-60
2021/09/28 00:44:56;;;;;;;5.76;4.17;;;;;;;;;;359304;148;856293;-60
2021/09/28 00:45:58;;;;;;;8.78;4.54;;;;;;;;;;360110;147;863603;-60
2021/09/28 00:47:00;;;;;;;7.51;4.07;;;;;;;;;;359541;147;857058;-60
2021/09/28 00:48:01;;;;;;;9.92;4.64;;;;;;;;;;359205;147;856371;-59
2021/09/28 00:49:03;;;;;;;8.31;4.20;;;;;;;;;;359848;147;863701;-58
2021/09/28 00:50:05;;;;;;;8.97;4.75;;;;;;;;;;359674;147;863752;-58
2021/09/28 00:51:06;;;;;;;9.34;4.91;;;;;;;;;;360351;147;856447;-59
2021/09/28 00:52:09;;;;;;;6.87;4.61;;;;;;;;;;358251;148;864445;-59
2021/09/28 00:53:10;;;;;;;7.26;4.32;;;;;;;;;;359579;148;864022;-58
2021/09/28 00:54:12;;;;;;;7.90;4.88;;;;;;;;;;358539;148;856028;-58
2021/09/28 00:55:14;;;;;;;11.14;4.62;;;;;;;;;;359754;148;856898;-58
2021/09/28 00:56:17;;;;;;;10.49;4.74;;;;;;;;;;360130;147;863952;-59
2021/09/28 00:57:19;;;;;;;9.49;4.58;;;;;;;;;;358558;147;856771;-59
2021/09/28 00:58:20;;;;;;;10.22;4.29;;;;;;;;;;359386;147;856265;-58
2021/09/28 00:59:22;;;;;;;8.68;4.65;;;;;;;;;;359907;147;858241;-58
2021/09/28 01:00:25;;;;;;;8.91;4.37;;;;;;;;;;359984;147;863670;-59
2021/09/28 01:01:27;;;;;;;9.71;4.51;;;;;;;;;;358965;147;856225;-59
2021/09/28 01:02:28;;;;;;;6.78;4.64;;;;;;;;;;358262;148;856605;-59
2021/09/28 01:03:33;;;;;;;8.62;4.11;;;;;;;;;;359225;148;857087;-59
2021/09/28 01:04:35;;;;;;;8.50;4.34;;;;;;;;;;357994;148;856606;-59
2021/09/28 01:05:36;;;;;;;9.70;4.09;;;;;;;;;;359486;148;864180;-59
2021/09/28 01:06:39;;;;;;;9.76;4.47;;;;;;;;;;360449;147;862529;-58
2021/09/28 01:07:41;;;;;;;8.09;4.73;;;;;;;;;;358963;147;857208;-59
2021/09/28 01:08:42;;;;;;;10.14;4.22;;;;;;;;;;359228;147;856908;-59
2021/09/28 01:09:44;;;;;;;4.82;4.00;;;;;;;;;;358670;147;864056;-59
2021/09/28 01:10:46;;;;;;;6.83;4.01;;;;;;;;;;359413;147;856149;-59
2021/09/28 01:11:47;;;;;;;7.07;3.85;;;;;;;;;;356881;147;863694;-59
2021/09/28 01:12:49;;;;;;;6.29;4.04;;;;;;;;;;351377;150;863552;-59
2021/09/28 01:13:50;;;;;;;5.67;3.84;;;;;;;;;;352545;150;856609;-59
2021/09/28 01:14:52;;;;;;;6.94;4.18;;;;;;;;;;358680;148;856025;-59
2021/09/28 01:16:01;;;;;;;14.26;5.31;;;;;;;;;;359903;147;856172;-59
2021/09/28 01:17:05;;;;;;;9.48;4.29;;;;;;;;;;359571;147;856101;-59
2021/09/28 01:18:06;;;;;;;6.90;3.90;;;;;;;;;;358731;148;856155;-59
2021/09/28 01:19:08;;;;;;;9.11;4.66;;;;;;;;;;359691;147;856240;-59
2021/09/28 01:20:10;;;;;;;8.74;4.23;;;;;;;;;;359575;147;862052;-59
2021/09/28 01:21:12;;;;;;;8.58;4.25;;;;;;;;;;359929;147;856069;-59
2021/09/28 01:22:14;;;;;;;8.05;3.86;;;;;;;;;;359417;147;856162;-59
2021/09/28 01:23:16;;;;;;;6.94;4.31;;;;;;;;;;359626;147;856075;-59
2021/09/28 01:24:17;;;;;;;7.09;3.72;;;;;;;;;;359195;147;856990;-59
2021/09/28 01:25:19;;;;;;;7.10;3.76;;;;;;;;;;359871;147;856239;-58
2021/09/28 01:26:26;;;;;;;5.65;3.93;;;;;;;;;;360016;147;856623;-58
2021/09/28 01:27:27;;;;;;;6.81;4.17;;;;;;;;;;359821;147;857088;-59
2021/09/28 01:28:29;;;;;;;6.37;4.04;;;;;;;;;;359225;147;857403;-59
2021/09/28 01:29:30;;;;;;;8.22;3.78;;;;;;;;;;359391;147;863715;-58
2021/09/28 01:30:33;;;;;;;6.53;4.06;;;;;;;;;;358883;145;856549;-59
2021/09/28 01:31:35;;;;;;;7.39;4.13;;;;;;;;;;359534;147;856388;-59
2021/09/28 01:32:37;;;;;;;10.81;4.65;;;;;;;;;;358339;147;863573;-59
2021/09/28 01:33:38;;;;;;;6.55;3.64;;;;;;;;;;359794;147;856120;-59
2021/09/28 01:52:19;;;;;;;10.47;3.55;;;;;;;7.46;68.88;100655.76;374073;142;869504;-59
2021/09/28 01:53:21;;;;;;;7.67;3.95;;;;;;;7.39;68.85;100656.50;362754;145;857724;-59
2021/09/28 01:54:23;;;;;;;8.82;3.79;;;;;;;7.39;68.96;100654.78;363550;144;859683;-59
2021/09/28 01:55:25;;;;;;;9.91;3.97;;;;;;;;;;363386;144;866986;-59
2021/09/28 01:56:27;;;;;;;5.21;3.76;;;;;;;;;;362133;144;865118;-59
2021/09/28 01:57:29;;;;;;;7.70;4.85;;;;;;;;;;362555;144;857998;-59
2021/09/28 01:58:32;;;;;;;7.81;5.59;;;;;;;;;;363304;144;859575;-59
2021/09/28 01:59:34;;;;;;;6.58;5.37;;;;;;;;;;363063;144;857902;-59
2021/09/28 02:00:35;;;;;;;8.89;5.96;;;;;;;;;;362128;144;857743;-59
2021/09/28 02:01:37;;;;;;;11.12;6.84;;;;;;;;;;363063;144;864911;-59
2021/09/28 02:02:38;;;;;;;17.02;7.01;;;;;;;;;;359880;145;864899;-59
2021/09/28 02:03:40;;;;;;;14.61;6.91;;;;;;;;;;363034;144;856489;-59
2021/09/28 02:04:41;;;;;;;13.08;8.15;;;;;;;;;;363022;144;864582;-59
2021/09/28 02:05:43;;;;;;;24.06;7.33;;;;;;;;;;362993;144;856352;-59
2021/09/28 02:06:46;;;;;;;23.40;7.37;;;;;;;;;;362975;144;863680;-59
2021/09/28 02:07:47;;;;;;;37.54;8.11;;;;;;;;;;362275;147;856456;-59
2021/09/28 02:08:49;;;;;;;33.58;8.31;;;;;;;;;;363352;144;863790;-59
2021/09/28 02:09:50;;;;;;;59.10;8.63;;;;;;;;;;361229;147;864200;-59
2021/09/28 02:10:54;;;;;;;61.44;7.97;;;;;;;;;;358332;147;856170;-58
2021/09/28 02:11:55;;;;;;;86.01;7.92;;;;;;;;;;351320;147;856603;-60
2021/09/28 02:12:57;;;;;;;92.24;8.58;;;;;;;;;;351381;150;863672;-59
2021/09/28 02:14:02;;;;;;;85.04;8.33;;;;;;;;;;358158;147;856408;-59
2021/09/28 02:15:03;;;;;;;133.75;7.75;;;;;;;;;;357599;147;864114;-59
2021/09/28 02:16:05;;;;;;;165.21;9.25;;;;;;;;;;357532;147;863756;-59
2021/09/28 02:17:07;;;;;;;174.66;10.09;;;;;;;;;;358333;147;856347;-59
2021/09/28 02:18:09;;;;;;;176.44;8.78;;;;;;;;;;359339;147;863975;-59
2021/09/28 02:19:11;;;;;;;187.90;10.54;;;;;;;;;;358387;147;864024;-59
2021/09/28 02:20:14;;;;;;;95.65;7.21;;;;;;;;;;358441;147;856081;-59
2021/09/28 02:21:15;;;;;;;74.29;7.98;;;;;;;;;;358484;147;856632;-59
2021/09/28 02:22:17;;;;;;;72.74;6.99;;;;;;;;;;358997;147;862462;-59
2021/09/28 02:23:19;;;;;;;68.55;8.05;;;;;;;;;;358306;147;863598;-59
2021/09/28 02:24:21;;;;;;;62.26;7.37;;;;;;;;;;358491;147;863934;-59
2021/09/28 02:25:23;;;;;;;71.46;7.09;;;;;;;;;;358642;147;863917;-59
2021/09/28 02:26:25;;;;;;;90.08;7.73;;;;;;;;;;358972;147;856105;-59
2021/09/28 02:27:28;;;;;;;41.51;5.93;;;;;;;;;;358491;147;856409;-59
2021/09/28 02:28:30;;;;;;;68.08;7.58;;;;;;;;;;358455;147;856190;-59
2021/09/28 02:29:31;;;;;;;79.88;7.06;;;;;;;;;;358205;147;856141;-59
2021/09/28 02:30:34;;;;;;;49.83;7.50;;;;;;;;;;360126;147;856174;-59
2021/09/28 02:31:35;;;;;;;56.91;6.58;;;;;;;;;;358498;147;855971;-59
2021/09/28 02:32:37;;;;;;;103.28;7.98;;;;;;;;;;351171;150;864434;-59
2021/09/28 02:33:39;;;;;;;107.56;8.44;;;;;;;;;;357998;147;856533;-59
2021/09/28 02:34:41;;;;;;;70.86;7.19;;;;;;;;;;359415;147;858537;-59
2021/09/28 02:35:43;;;;;;;98.97;6.95;;;;;;;;;;357830;150;856164;-58
2021/09/28 02:36:47;;;;;;;106.74;9.90;;;;;;;;;;359818;147;856050;-59
2021/09/28 02:37:48;;;;;;;104.91;8.39;;;;;;;;;;359000;147;856305;-59
2021/09/28 02:38:50;;;;;;;108.52;8.36;;;;;;;;;;358407;147;856592;-59
2021/09/28 02:39:51;;;;;;;135.59;7.32;;;;;;;;;;358671;147;856689;-59
2021/09/28 02:40:53;;;;;;;103.41;7.43;;;;;;;;;;358192;147;864585;-59
2021/09/28 02:41:55;;;;;;;81.96;6.81;;;;;;;;;;358244;147;856946;-59
2021/09/28 02:42:56;;;;;;;115.49;7.10;;;;;;;;;;358660;147;864687;-59
2021/09/28 02:43:59;;;;;;;103.61;8.31;;;;;;;;;;358059;147;857569;-59
2021/09/28 02:45:00;;;;;;;44.03;7.00;;;;;;;;;;358858;147;863648;-59
2021/09/28 02:46:02;;;;;;;114.77;9.51;;;;;;;;;;359019;147;856237;-59
2021/09/28 02:47:04;;;;;;;78.41;7.79;;;;;;;;;;360695;147;863876;-59
2021/09/28 02:48:05;;;;;;;58.98;7.19;;;;;;;;;;358211;147;856159;-59
2021/09/28 02:49:07;;;;;;;100.10;7.85;;;;;;;;;;361109;147;856799;-59
2021/09/28 02:50:10;;;;;;;96.51;8.59;;;;;;;;;;358515;147;856853;-59
2021/09/28 02:51:12;;;;;;;134.04;6.92;;;;;;;;;;358714;147;856162;-59
2021/09/28 02:52:13;;;;;;;88.19;7.42;;;;;;;;;;357918;147;863529;-59
2021/09/28 02:53:15;;;;;;;140.02;8.49;;;;;;;;;;358619;147;856741;-59
2021/09/28 02:54:17;;;;;;;58.68;7.29;;;;;;;;;;359159;147;864032;-59
2021/09/28 02:55:18;;;;;;;54.54;5.75;;;;;;;;;;358338;147;863946;-59
2021/09/28 02:56:21;;;;;;;100.40;7.22;;;;;;;;;;357167;147;856289;-59
2021/09/28 02:57:23;;;;;;;77.85;6.20;;;;;;;;;;358557;147;856402;-59
2021/09/28 02:58:24;;;;;;;91.25;6.89;;;;;;;;;;358477;147;864172;-59
2021/09/28 02:59:26;;;;;;;91.06;6.54;;;;;;;;;;357971;147;864068;-59
2021/09/28 03:00:28;;;;;;;51.49;6.07;;;;;;;;;;358056;148;864296;-58
2021/09/28 03:01:30;;;;;;;105.04;8.51;;;;;;;;;;359809;147;855959;-59
2021/09/28 03:02:32;;;;;;;48.49;6.62;;;;;;;;;;358866;147;863728;-59
2021/09/28 03:03:33;;;;;;;139.00;6.77;;;;;;;;;;359196;147;863949;-59
2021/09/28 03:04:38;;;;;;;63.68;6.60;;;;;;;;;;358973;148;864330;-59
2021/09/28 03:05:40;;;;;;;97.87;6.82;;;;;;;;;;357008;148;863882;-59
2021/09/28 03:06:41;;;;;;;82.04;6.14;;;;;;;;;;358384;147;863527;-59
2021/09/28 03:07:43;;;;;;;86.67;6.37;;;;;;;;;;358145;147;863915;-59
2021/09/28 03:08:44;;;;;;;79.35;6.12;;;;;;;;;;358417;147;856160;-59
2021/09/28 03:09:46;;;;;;;52.84;5.77;;;;;;;;;;357751;147;856265;-59
2021/09/28 03:10:48;;;;;;;91.61;6.63;;;;;;;;;;359757;148;856177;-58
2021/09/28 03:11:49;;;;;;;54.75;5.46;;;;;;;;;;358628;147;856181;-59
2021/09/28 03:12:51;;;;;;;56.84;5.31;;;;;;;;;;356835;147;863659;-59
2021/09/28 03:13:53;;;;;;;58.84;5.81;;;;;;;;;;358745;147;856078;-59
2021/09/28 03:14:55;;;;;;;52.41;5.57;;;;;;;;;;358502;147;863765;-59
2021/09/28 03:15:56;;;;;;;37.25;5.31;;;;;;;;;;357678;147;856715;-60
2021/09/28 03:16:58;;;;;;;79.31;8.00;;;;;;;;;;358781;147;859112;-59
2021/09/28 03:18:00;;;;;;;43.04;5.48;;;;;;;;;;358329;147;856249;-59
2021/09/28 03:19:01;;;;;;;52.79;6.11;;;;;;;;;;358809;147;857989;-59
2021/09/28 03:20:04;;;;;;;54.02;6.28;;;;;;;;;;359494;147;857171;-59
2021/09/28 03:21:05;;;;;;;9.15;3.25;;;;;;;;;;357766;147;861431;-59
2021/09/28 03:22:07;;;;;;;4.16;2.91;;;;;;;;;;355004;150;856197;-59
2021/09/28 03:23:08;;;;;;;6.57;2.87;;;;;;;;;;358685;148;856439;-59
2021/09/28 03:24:10;;;;;;;8.25;3.56;;;;;;;;;;357139;148;863607;-59
2021/09/28 03:25:12;;;;;;;10.44;6.04;;;;;;;;;;359417;147;863766;-59
2021/09/28 03:26:13;;;;;;;29.41;4.68;;;;;;;;;;357266;147;857049;-59
2021/09/28 03:27:15;;;;;;;30.19;5.54;;;;;;;;;;358975;148;863697;-59
2021/09/28 03:28:17;;;;;;;5.07;2.91;;;;;;;;;;357364;147;856088;-59
2021/09/28 03:29:18;;;;;;;6.99;3.45;;;;;;;;;;358601;147;864545;-59
2021/09/28 03:30:20;;;;;;;2.19;1.74;;;;;;;;;;358402;147;864423;-59
2021/09/28 03:31:22;;;;;;;4.72;2.92;;;;;;;;;;358498;147;856204;-59
2021/09/28 03:32:23;;;;;;;5.06;2.88;;;;;;;;;;357618;147;864067;-59
2021/09/28 03:33:25;;;;;;;4.23;3.30;;;;;;;;;;358743;147;856317;-59
2021/09/28 03:34:27;;;;;;;11.45;3.70;;;;;;;;;;357851;147;863869;-59
2021/09/28 03:35:29;;;;;;;4.19;2.89;;;;;;;;;;357684;147;856164;-59
2021/09/28 03:36:32;;;;;;;4.34;2.58;;;;;;;;;;357461;147;858212;-58
2021/09/28 03:37:34;;;;;;;4.64;3.35;;;;;;;;;;357916;147;856472;-59
2021/09/28 03:38:35;;;;;;;4.11;3.00;;;;;;;;;;358706;147;857594;-59
2021/09/28 03:39:37;;;;;;;6.44;3.48;;;;;;;;;;357992;147;856291;-60
2021/09/28 03:40:40;;;;;;;9.73;3.64;;;;;;;;;;358903;147;856201;-60
2021/09/28 03:41:42;;;;;;;4.89;3.27;;;;;;;;;;358022;147;856486;-60
2021/09/28 03:42:43;;;;;;;3.71;2.55;;;;;;;;;;358772;147;863650;-60
2021/09/28 03:43:45;;;;;;;11.65;3.53;;;;;;;;;;358809;147;864118;-60
2021/09/28 03:44:47;;;;;;;4.34;3.14;;;;;;;;;;358270;147;856231;-60
2021/09/28 03:45:48;;;;;;;14.51;3.76;;;;;;;;;;358309;147;856025;-60
2021/09/28 03:46:50;;;;;;;18.75;3.89;;;;;;;;;;360225;147;856082;-60
2021/09/28 03:47:52;;;;;;;25.36;4.59;;;;;;;;;;358016;147;856173;-59
2021/09/28 03:48:53;;;;;;;10.53;4.14;;;;;;;;;;358018;148;857782;-61
2021/09/28 03:49:55;;;;;;;12.16;3.44;;;;;;;;;;358106;147;864107;-63
2021/09/28 03:50:57;;;;;;;3.39;2.73;;;;;;;;;;358014;147;856356;-61
2021/09/28 03:51:58;;;;;;;22.26;4.71;;;;;;;;;;357821;147;863541;-61
2021/09/28 03:53:00;;;;;;;11.84;2.96;;;;;;;;;;356365;147;864859;-66
2021/09/28 03:54:01;;;;;;;5.33;2.71;;;;;;;;;;355071;149;865754;-63
2021/09/28 03:55:04;;;;;;;9.91;3.81;;;;;;;;;;355679;151;865139;-59
2021/09/28 03:56:06;;;;;;;5.54;2.84;;;;;;;;;;355124;148;856546;-59
2021/09/28 03:57:07;;;;;;;3.89;3.05;;;;;;;;;;354817;148;856047;-59
2021/09/28 03:58:11;;;;;;;9.12;3.42;;;;;;;;;;354723;148;856556;-59
2021/09/28 03:59:12;;;;;;;4.71;3.26;;;;;;;;;;356134;151;863631;-59
2021/09/28 04:00:16;;;;;;;4.79;3.17;;;;;;;;;;354689;148;857280;-59
2021/09/28 04:01:19;;;;;;;6.63;3.63;;;;;;;;;;355207;148;856482;-58
2021/09/28 04:02:20;;;;;;;19.89;3.94;;;;;;;;;;353436;148;856321;-61
2021/09/28 04:03:22;;;;;;;12.77;3.47;;;;;;;;;;355247;148;856523;-60
2021/09/28 04:04:23;;;;;;;11.67;3.32;;;;;;;;;;354930;149;864012;-60
2021/09/28 04:05:25;;;;;;;6.34;3.69;;;;;;;;;;356605;148;856346;-60
2021/09/28 04:06:28;;;;;;;8.31;3.74;;;;;;;;;;355611;151;856448;-59
2021/09/28 04:07:29;;;;;;;5.98;3.44;;;;;;;;;;353975;148;856278;-59
2021/09/28 04:08:31;;;;;;;6.96;3.54;;;;;;;;;;354866;148;856245;-59
2021/09/28 04:09:32;;;;;;;14.47;4.05;;;;;;;;;;352300;151;856495;-59
2021/09/28 04:10:35;;;;;;;6.57;3.32;;;;;;;;;;355541;148;863698;-60
2021/09/28 04:11:37;;;;;;;5.39;3.23;;;;;;;;;;355008;149;856504;-60
2021/09/28 04:12:38;;;;;;;8.06;3.56;;;;;;;;;;355485;148;856874;-57
2021/09/28 04:13:42;;;;;;;3.54;2.82;;;;;;;;;;355760;150;863517;-60
2021/09/28 04:14:45;;;;;;;3.94;2.92;;;;;;;;;;355490;148;863871;-58
2021/09/28 04:15:47;;;;;;;7.39;3.84;;;;;;;;;;355157;148;856660;-59
2021/09/28 04:16:49;;;;;;;5.85;3.69;;;;;;;;;;349825;151;858043;-59
2021/09/28 04:17:51;;;;;;;5.66;3.93;;;;;;;;;;351296;151;856346;-59
2021/09/28 04:18:53;;;;;;;7.73;3.63;;;;;;;;;;354143;149;856706;-59
2021/09/28 04:19:55;;;;;;;7.00;4.09;;;;;;;;;;354900;148;855994;-59
2021/09/28 04:20:57;;;;;;;7.04;3.65;;;;;;;;;;354684;149;856237;-60
2021/09/28 04:21:59;;;;;;;8.39;4.33;;;;;;;;;;355094;148;863658;-60
2021/09/28 04:23:01;;;;;;;8.71;4.01;;;;;;;;;;354910;148;863569;-59
2021/09/28 04:24:02;;;;;;;21.82;5.96;;;;;;;;;;354734;150;864402;-59
2021/09/28 04:25:04;;;;;;;42.68;7.84;;;;;;;;;;357137;148;856339;-58
2021/09/28 04:26:07;;;;;;;19.89;7.51;;;;;;;;;;354437;149;863892;-59
2021/09/28 04:27:08;;;;;;;10.01;6.46;;;;;;;;;;354463;148;864097;-59
2021/09/28 04:28:10;;;;;;;14.86;6.85;;;;;;;;;;350026;151;856265;-59
2021/09/28 04:29:11;;;;;;;24.66;6.31;;;;;;;;;;349576;151;859200;-59
2021/09/28 04:30:14;;;;;;;15.09;6.21;;;;;;;;;;354701;148;856717;-59
2021/09/28 04:31:16;;;;;;;11.64;5.38;;;;;;;;;;355107;151;855976;-60
2021/09/28 04:32:17;;;;;;;21.05;7.00;;;;;;;;;;351764;148;863718;-60
2021/09/28 04:33:19;;;;;;;11.95;6.36;;;;;;;;;;353536;148;856500;-60
2021/09/28 04:34:21;;;;;;;19.87;7.66;;;;;;;;;;355983;149;863963;-59
2021/09/28 04:35:22;;;;;;;11.99;6.42;;;;;;;;;;355053;148;858980;-59
2021/09/28 04:36:24;;;;;;;14.99;6.96;;;;;;;;;;354697;149;864031;-59
2021/09/28 04:37:26;;;;;;;13.93;6.61;;;;;;;;;;355946;148;856269;-59
2021/09/28 04:38:27;;;;;;;11.64;6.08;;;;;;;;;;355665;150;863946;-60
2021/09/28 04:39:29;;;;;;;15.59;6.46;;;;;;;;;;355925;148;864216;-60
2021/09/28 04:40:31;;;;;;;9.97;5.97;;;;;;;;;;355145;149;856470;-59
2021/09/28 04:41:33;;;;;;;16.37;7.46;;;;;;;;;;354351;149;855991;-59
2021/09/28 04:42:35;;;;;;;12.32;6.06;;;;;;;;;;354674;151;863982;-59
2021/09/28 04:43:36;;;;;;;11.04;5.82;;;;;;;;;;354956;148;863764;-59
2021/09/28 04:44:38;;;;;;;22.32;7.96;;;;;;;;;;355554;148;859154;-59
2021/09/28 04:45:39;;;;;;;10.92;6.52;;;;;;;;;;352889;151;863597;-59
2021/09/28 04:46:42;;;;;;;18.27;7.72;;;;;;;;;;355469;148;864037;-59
2021/09/28 04:47:43;;;;;;;14.61;6.91;;;;;;;;;;355356;149;856136;-59
2021/09/28 04:48:45;;;;;;;11.55;6.92;;;;;;;;;;355286;149;857019;-59
2021/09/28 04:49:46;;;;;;;10.34;6.14;;;;;;;;;;354511;151;863847;-59
2021/09/28 04:50:52;;;;;;;12.96;6.94;;;;;;;;;;353760;148;863782;-59
2021/09/28 04:51:53;;;;;;;18.10;8.99;;;;;;;;;;354083;148;856035;-59
2021/09/28 04:52:54;;;;;;;11.16;6.43;;;;;;;;;;355170;151;856108;-59
2021/09/28 04:53:56;;;;;;;19.67;7.23;;;;;;;;;;355737;148;863913;-61
2021/09/28 04:54:58;;;;;;;14.44;7.12;;;;;;;;;;357248;147;863826;-60
2021/09/28 04:55:59;;;;;;;13.61;7.39;;;;;;;;;;359110;147;863705;-59
2021/09/28 04:57:01;;;;;;;14.94;8.35;;;;;;;;;;351925;151;863874;-59
2021/09/28 04:58:02;;;;;;;15.09;7.09;;;;;;;;;;352372;150;864569;-60
2021/09/28 04:59:04;;;;;;;12.61;7.14;;;;;;;;;;358816;147;863807;-60
2021/09/28 05:00:06;;;;;;;21.84;8.66;;;;;;;;;;358564;147;856773;-58
2021/09/28 05:01:08;;;;;;;11.45;7.27;;;;;;;;;;358806;147;863842;-59
2021/09/28 05:02:09;;;;;;;8.98;6.24;;;;;;;;;;357519;147;856116;-61
2021/09/28 05:03:11;;;;;;;14.29;8.09;;;;;;;;;;359536;147;863825;-58
2021/09/28 05:04:12;;;;;;;17.46;9.70;;;;;;;;;;357589;147;856402;-59
2021/09/28 05:05:14;;;;;;;13.37;7.32;;;;;;;;;;358362;147;864554;-59
2021/09/28 05:06:17;;;;;;;14.24;9.09;;;;;;;;;;358451;147;864570;-58
2021/09/28 05:07:19;;;;;;;14.65;8.55;;;;;;;;;;358505;147;856203;-59
2021/09/28 05:08:20;;;;;;;21.96;13.59;;;;;;;;;;360270;147;856447;-58
2021/09/28 05:09:22;;;;;;;18.05;9.88;;;;;;;;;;358753;147;864295;-58
2021/09/28 05:10:24;;;;;;;16.18;9.12;;;;;;;;;;358105;147;857118;-59
2021/09/28 05:11:26;;;;;;;25.09;14.01;;;;;;;;;;359827;147;856338;-57
2021/09/28 05:12:28;;;;;;;19.27;11.01;;;;;;;;;;357390;147;863626;-57
2021/09/28 05:13:30;;;;;;;16.77;11.47;;;;;;;;;;357048;147;856654;-59
2021/09/28 05:14:32;;;;;;;20.40;12.49;;;;;;;;;;358144;147;863627;-59
2021/09/28 05:15:33;;;;;;;21.91;12.37;;;;;;;;;;358665;147;856156;-58
2021/09/28 05:16:35;;;;;;;18.52;11.69;;;;;;;;;;358364;147;856045;-60
2021/09/28 05:17:37;;;;;;;24.89;13.46;;;;;;;;;;358783;147;856095;-58
2021/09/28 05:18:38;;;;;;;18.33;11.23;;;;;;;;;;358154;147;863634;-59
2021/09/28 05:19:40;;;;;;;22.58;11.39;;;;;;;;;;358730;147;856769;-59
2021/09/28 05:20:42;;;;;;;13.17;8.41;;;;;;;;;;358954;147;856660;-59
2021/09/28 05:21:44;;;;;;;17.69;9.70;;;;;;;;;;358078;147;856496;-58
2021/09/28 05:22:46;;;;;;;12.27;7.80;;;;;;;;;;359245;147;856653;-59
2021/09/28 05:23:47;;;;;;;11.94;6.93;;;;;;;;;;358658;147;856177;-59
2021/09/28 05:24:49;;;;;;;11.67;6.64;;;;;;;;;;359155;147;856415;-58
2021/09/28 05:25:50;;;;;;;9.66;5.84;;;;;;;;;;359361;147;863946;-59
2021/09/28 05:26:52;;;;;;;9.93;5.32;;;;;;;;;;358765;147;856141;-58
2021/09/28 05:27:54;;;;;;;9.55;5.93;;;;;;;;;;358956;147;858065;-58
2021/09/28 05:28:55;;;;;;;10.18;6.07;;;;;;;;;;357556;147;856524;-56
2021/09/28 05:29:57;;;;;;;12.64;6.31;;;;;;;;;;357433;147;856670;-59
2021/09/28 05:30:59;;;;;;;13.60;4.40;;;;;;;;;;357745;147;856012;-58
2021/09/28 05:32:01;;;;;;;8.71;4.74;;;;;;;;;;357155;147;857556;-58
2021/09/28 05:33:02;;;;;;;10.00;5.71;;;;;;;;;;358223;149;857677;-58
2021/09/28 05:34:04;;;;;;;8.97;5.51;;;;;;;;;;358440;148;859260;-58
2021/09/28 05:35:05;;;;;;;10.46;5.27;;;;;;;;;;359507;147;856295;-58
2021/09/28 05:36:08;;;;;;;8.97;4.74;;;;;;;;;;359837;148;858685;-58
2021/09/28 05:37:09;;;;;;;11.71;6.82;;;;;;;;;;358877;148;856028;-58
2021/09/28 05:38:11;;;;;;;12.29;6.40;;;;;;;;;;357073;148;858531;-57
2021/09/28 05:39:12;;;;;;;8.11;4.62;;;;;;;;;;357747;147;856131;-58
2021/09/28 05:40:14;;;;;;;8.90;5.04;;;;;;;;;;357889;147;856128;-58
2021/09/28 05:41:16;;;;;;;8.56;4.31;;;;;;;;;;352450;150;855989;-57
2021/09/28 05:42:17;;;;;;;10.41;6.17;;;;;;;;;;358518;147;863753;-56
2021/09/28 05:43:19;;;;;;;7.66;4.42;;;;;;;;;;358256;147;856364;-57
2021/09/28 05:44:21;;;;;;;8.94;5.61;;;;;;;;;;359390;147;856814;-58
2021/09/28 05:45:22;;;;;;;8.59;5.16;;;;;;;;;;358508;147;856348;-57
2021/09/28 05:46:25;;;;;;;12.31;6.04;;;;;;;;;;358889;147;864509;-57
2021/09/28 05:47:26;;;;;;;8.17;4.47;;;;;;;;;;358087;147;856386;-57
2021/09/28 05:48:28;;;;;;;11.01;6.16;;;;;;;;;;358357;147;856629;-57
2021/09/28 05:49:32;;;;;;;8.34;4.00;;;;;;;;;;358837;147;863953;-58
2021/09/28 05:52:23;;;;;;;7.97;4.49;;;;;;;9.05;73.44;100752.59;377755;141;881316;-57
2021/09/28 05:53:27;;;;;;;6.96;4.33;;;;;;;9.01;73.37;100758.58;366928;144;859375;-56
2021/09/28 05:54:29;;;;;;;7.42;4.69;;;;;;;9.04;73.08;100753.45;365880;144;859527;-58
2021/09/28 05:55:30;;;;;;;8.09;5.11;;;;;;;9.08;72.96;100753.48;366025;147;857284;-58
2021/09/28 05:56:32;;;;;;;6.52;3.87;;;;;;;9.13;73.17;100750.08;367211;144;859244;-57
2021/09/28 05:57:34;;;;;;;6.98;3.84;;;;;;;9.21;73.03;100753.61;367447;144;857562;-59
2021/09/28 05:58:36;;;;;;;6.00;3.58;;;;;;;9.21;73.03;100753.61;366698;144;864785;-58
2021/09/28 05:59:38;;;;;;;4.36;2.92;;;;;;;9.38;72.86;100758.08;366593;144;857178;-58
2021/09/28 06:00:41;;;;;;;5.66;3.43;;;;;;;9.48;72.92;100754.73;365773;144;864760;-58
2021/09/28 06:01:43;;;;;;;9.56;4.22;;;;;;;9.58;72.75;100754.85;366697;144;856162;-58
2021/09/28 06:02:45;;;;;;;7.21;3.71;;;;;;;9.65;72.47;100756.64;366274;144;863820;-58
2021/09/28 06:03:47;;;;;;;10.96;4.77;;;;;;;9.75;72.42;100761.03;367543;144;856700;-57
2021/09/28 06:04:48;;;;;;;6.12;3.98;;;;;;;9.88;72.06;100761.14;368325;144;864404;-58
2021/09/28 06:05:50;;;;;;;5.80;3.93;;;;;;;9.98;71.82;100762.94;368071;144;863684;-57
2021/09/28 06:06:53;;;;;;;10.81;5.40;;;;;;;10.07;71.50;100760.42;366623;144;864673;-55
2021/09/28 06:07:55;;;;;;;8.00;3.94;;;;;;;10.18;71.13;100764.80;366681;144;856001;-57
2021/09/28 06:08:57;;;;;;;6.54;3.34;;;;;;;10.26;70.89;100767.45;366883;144;863738;-60
2021/09/28 06:09:59;;;;;;;5.89;3.95;;;;;;;10.34;70.64;100763.20;366198;144;863537;-58
2021/09/28 06:11:02;;;;;;;6.73;4.55;;;;;;;10.41;70.22;100759.81;360953;144;857035;-58
2021/09/28 06:12:04;;;;;;;9.64;4.89;;;;;;;10.46;69.83;100760.70;361754;144;857825;-57
2021/09/28 06:13:07;;;;;;;6.95;3.78;;;;;;;10.46;69.83;100760.70;362124;144;856169;-56
2021/09/28 06:14:09;;;;;;;7.11;3.94;;;;;;;10.60;69.81;100765.97;357856;147;863616;-58